sensor_id;sensor_type;location;lat;lon;timestamp;pressure;altitude;pressure_sealevel;temperature;humidity
38054;BME280;23859;50.672;7.164;2024-03-29T00:01:23;35962.41;;;-140.95;52.05
38054;BME280;23859;50.672;7.164;2024-03-29T00:03:50;35994.56;;;-140.95;52.15
38054;BME280;23859;50.672;7.164;2024-03-29T00:06:16;35988.53;;;-140.95;52.24
38054;BME280;23859;50.672;7.164;2024-03-29T00:08:42;35972.44;;;-140.95;52.07
38054;BME280;23859;50.672;7.164;2024-03-29T00:11:08;35960.41;;;-140.95;52.02
38054;BME280;23859;50.672;7.164;2024-03-29T00:13:34;35940.31;;;-140.95;51.45
38054;BME280;23859;50.672;7.164;2024-03-29T00:16:00;35930.25;;;-140.95;51.12
38054;BME280;23859;50.672;7.164;2024-03-29T00:18:27;35938.28;;;-140.95;51.14
38054;BME280;23859;50.672;7.164;2024-03-29T00:20:53;35952.34;;;-140.95;51.67
38054;BME280;23859;50.672;7.164;2024-03-29T00:23:19;35958.38;;;-140.95;50.85
38054;BME280;23859;50.672;7.164;2024-03-29T00:25:45;35950.34;;;-140.95;50.32
38054;BME280;23859;50.672;7.164;2024-03-29T00:28:11;35954.38;;;-140.95;50.75
38054;BME280;23859;50.672;7.164;2024-03-29T00:30:37;35958.38;;;-140.95;50.45
38054;BME280;23859;50.672;7.164;2024-03-29T00:33:03;35928.25;;;-140.95;50.22
38054;BME280;23859;50.672;7.164;2024-03-29T00:35:29;35970.44;;;-140.95;50.51
38054;BME280;23859;50.672;7.164;2024-03-29T00:37:55;35936.28;;;-140.95;50.19
38054;BME280;23859;50.672;7.164;2024-03-29T00:40:21;35926.25;;;-140.95;50.20
38054;BME280;23859;50.672;7.164;2024-03-29T00:42:47;35888.06;;;-140.95;50.38
38054;BME280;23859;50.672;7.164;2024-03-29T00:45:13;35940.31;;;-140.95;50.14
38054;BME280;23859;50.672;7.164;2024-03-29T00:47:39;35942.31;;;-140.95;49.96
38054;BME280;23859;50.672;7.164;2024-03-29T00:50:05;35932.28;;;-140.95;50.03
38054;BME280;23859;50.672;7.164;2024-03-29T00:52:35;35932.28;;;-140.95;50.14
38054;BME280;23859;50.672;7.164;2024-03-29T00:55:01;35922.22;;;-140.95;50.31
38054;BME280;23859;50.672;7.164;2024-03-29T00:57:28;35908.16;;;-140.95;49.97
38054;BME280;23859;50.672;7.164;2024-03-29T00:59:54;35888.06;;;-140.95;49.96
38054;BME280;23859;50.672;7.164;2024-03-29T01:02:22;35916.19;;;-140.95;50.38
38054;BME280;23859;50.672;7.164;2024-03-29T01:04:49;35932.28;;;-140.95;50.25
38054;BME280;23859;50.672;7.164;2024-03-29T01:07:15;35914.19;;;-140.95;50.66
38054;BME280;23859;50.672;7.164;2024-03-29T01:09:43;35908.16;;;-140.95;50.16
38054;BME280;23859;50.672;7.164;2024-03-29T01:12:10;35918.19;;;-140.95;50.84
38054;BME280;23859;50.672;7.164;2024-03-29T01:14:36;36143.25;;;-140.95;50.30
38054;BME280;23859;50.672;7.164;2024-03-29T01:17:03;35928.25;;;-140.95;50.82
38054;BME280;23859;50.672;7.164;2024-03-29T01:19:29;35960.41;;;-140.95;50.55
38054;BME280;23859;50.672;7.164;2024-03-29T01:21:55;35924.22;;;-140.95;51.58
38054;BME280;23859;50.672;7.164;2024-03-29T01:24:21;35946.34;;;-140.95;50.97
38054;BME280;23859;50.672;7.164;2024-03-29T01:26:47;35924.22;;;-140.95;51.08
38054;BME280;23859;50.672;7.164;2024-03-29T01:29:13;35902.13;;;-140.95;51.06
38054;BME280;23859;50.672;7.164;2024-03-29T01:31:39;35924.22;;;-140.95;50.58
38054;BME280;23859;50.672;7.164;2024-03-29T01:34:05;35920.22;;;-140.95;50.68
38054;BME280;23859;50.672;7.164;2024-03-29T01:36:31;35900.13;;;-140.95;50.84
38054;BME280;23859;50.672;7.164;2024-03-29T01:38:57;35916.19;;;-140.95;50.48
38054;BME280;23859;50.672;7.164;2024-03-29T01:41:24;35912.19;;;-140.95;50.44
38054;BME280;23859;50.672;7.164;2024-03-29T01:43:54;35900.13;;;-140.95;50.31
38054;BME280;23859;50.672;7.164;2024-03-29T01:46:22;35922.22;;;-140.95;49.89
38054;BME280;23859;50.672;7.164;2024-03-29T01:48:53;35892.09;;;-140.95;50.11
38054;BME280;23859;50.672;7.164;2024-03-29T01:51:21;35892.09;;;-140.95;50.35
38054;BME280;23859;50.672;7.164;2024-03-29T01:53:52;35928.25;;;-140.95;50.04
38054;BME280;23859;50.672;7.164;2024-03-29T01:56:21;35912.19;;;-140.95;50.42
38054;BME280;23859;50.672;7.164;2024-03-29T01:58:51;35920.22;;;-140.95;50.77
38054;BME280;23859;50.672;7.164;2024-03-29T02:01:20;35914.19;;;-140.95;50.59
38054;BME280;23859;50.672;7.164;2024-03-29T02:03:47;35886.06;;;-140.95;50.67
38054;BME280;23859;50.672;7.164;2024-03-29T02:06:14;35924.22;;;-140.95;50.41
38054;BME280;23859;50.672;7.164;2024-03-29T02:08:40;35910.16;;;-140.95;50.75
38054;BME280;23859;50.672;7.164;2024-03-29T02:11:06;35960.41;;;-140.95;50.90
38054;BME280;23859;50.672;7.164;2024-03-29T02:13:33;35914.19;;;-140.95;51.38
38054;BME280;23859;50.672;7.164;2024-03-29T02:15:59;35926.25;;;-140.95;50.74
38054;BME280;23859;50.672;7.164;2024-03-29T02:18:25;35914.19;;;-140.95;51.44
38054;BME280;23859;50.672;7.164;2024-03-29T02:20:52;35912.19;;;-140.95;51.29
38054;BME280;23859;50.672;7.164;2024-03-29T02:23:27;35926.25;;;-140.95;51.44
38054;BME280;23859;50.672;7.164;2024-03-29T02:25:54;35932.28;;;-140.95;51.28
38054;BME280;23859;50.672;7.164;2024-03-29T02:28:22;35932.28;;;-140.95;51.19
38054;BME280;23859;50.672;7.164;2024-03-29T02:37:14;35920.22;;;-140.95;50.92
38054;BME280;23859;50.672;7.164;2024-03-29T02:39:41;35954.38;;;-140.95;51.14
38054;BME280;23859;50.672;7.164;2024-03-29T02:42:07;35918.19;;;-140.95;50.87
38054;BME280;23859;50.672;7.164;2024-03-29T02:44:33;35934.28;;;-140.95;51.10
38054;BME280;23859;50.672;7.164;2024-03-29T02:46:59;35964.41;;;-140.95;50.74
38054;BME280;23859;50.672;7.164;2024-03-29T02:49:25;35920.22;;;-140.95;51.14
38054;BME280;23859;50.672;7.164;2024-03-29T02:51:51;35912.19;;;-140.95;51.10
38054;BME280;23859;50.672;7.164;2024-03-29T02:54:18;35944.31;;;-140.95;51.72
38054;BME280;23859;50.672;7.164;2024-03-29T02:56:44;35936.28;;;-140.95;51.38
38054;BME280;23859;50.672;7.164;2024-03-29T02:59:10;35932.28;;;-140.95;50.88
38054;BME280;23859;50.672;7.164;2024-03-29T03:01:37;35936.28;;;-140.95;51.19
38054;BME280;23859;50.672;7.164;2024-03-29T03:04:03;35916.19;;;-140.95;50.71
38054;BME280;23859;50.672;7.164;2024-03-29T03:06:29;35922.22;;;-140.95;50.41
38054;BME280;23859;50.672;7.164;2024-03-29T03:08:55;35904.13;;;-140.95;50.68
38054;BME280;23859;50.672;7.164;2024-03-29T03:11:39;35926.25;;;-140.95;51.19
38054;BME280;23859;50.672;7.164;2024-03-29T03:14:06;35900.13;;;-140.95;50.36
38054;BME280;23859;50.672;7.164;2024-03-29T03:16:32;35932.28;;;-140.95;50.49
38054;BME280;23859;50.672;7.164;2024-03-29T03:18:58;35928.25;;;-140.95;50.44
38054;BME280;23859;50.672;7.164;2024-03-29T03:21:24;35892.09;;;-140.95;49.80
38054;BME280;23859;50.672;7.164;2024-03-29T03:23:50;35916.19;;;-140.95;50.07
38054;BME280;23859;50.672;7.164;2024-03-29T03:26:16;35942.31;;;-140.95;50.61
38054;BME280;23859;50.672;7.164;2024-03-29T03:28:42;35890.06;;;-140.95;50.37
38054;BME280;23859;50.672;7.164;2024-03-29T03:31:08;35920.22;;;-140.95;50.55
38054;BME280;23859;50.672;7.164;2024-03-29T03:33:35;35916.19;;;-140.95;50.36
38054;BME280;23859;50.672;7.164;2024-03-29T03:36:01;35948.34;;;-140.95;50.49
38054;BME280;23859;50.672;7.164;2024-03-29T03:38:27;35910.16;;;-140.95;50.51
38054;BME280;23859;50.672;7.164;2024-03-29T03:40:53;35928.25;;;-140.95;51.10
38054;BME280;23859;50.672;7.164;2024-03-29T03:43:19;35916.19;;;-140.95;51.20
38054;BME280;23859;50.672;7.164;2024-03-29T03:45:45;35940.31;;;-140.95;50.97
38054;BME280;23859;50.672;7.164;2024-03-29T03:48:11;35908.16;;;-140.95;51.75
38054;BME280;23859;50.672;7.164;2024-03-29T03:50:40;35912.19;;;-140.95;51.41
38054;BME280;23859;50.672;7.164;2024-03-29T03:53:07;35942.31;;;-140.95;51.59
38054;BME280;23859;50.672;7.164;2024-03-29T03:55:39;35928.25;;;-140.95;51.25
38054;BME280;23859;50.672;7.164;2024-03-29T03:58:05;35910.16;;;-140.95;51.57
38054;BME280;23859;50.672;7.164;2024-03-29T04:00:31;35936.28;;;-140.95;50.98
38054;BME280;23859;50.672;7.164;2024-03-29T04:02:57;35920.22;;;-140.95;50.75
38054;BME280;23859;50.672;7.164;2024-03-29T04:05:23;35892.09;;;-140.95;50.82
38054;BME280;23859;50.672;7.164;2024-03-29T04:07:50;35924.22;;;-140.95;51.12
38054;BME280;23859;50.672;7.164;2024-03-29T04:10:16;35956.38;;;-140.95;51.42
38054;BME280;23859;50.672;7.164;2024-03-29T04:12:42;35936.28;;;-140.95;51.39
38054;BME280;23859;50.672;7.164;2024-03-29T04:15:09;35950.34;;;-140.95;51.75
38054;BME280;23859;50.672;7.164;2024-03-29T04:17:35;35926.25;;;-140.95;51.50
38054;BME280;23859;50.672;7.164;2024-03-29T04:20:01;35916.19;;;-140.95;51.61
38054;BME280;23859;50.672;7.164;2024-03-29T04:22:28;35924.22;;;-140.95;51.29
38054;BME280;23859;50.672;7.164;2024-03-29T04:24:55;35942.31;;;-140.95;51.30
38054;BME280;23859;50.672;7.164;2024-03-29T04:27:21;35904.13;;;-140.95;51.44
38054;BME280;23859;50.672;7.164;2024-03-29T04:29:50;35896.09;;;-140.95;51.56
38054;BME280;23859;50.672;7.164;2024-03-29T04:32:16;35928.25;;;-140.95;51.75
38054;BME280;23859;50.672;7.164;2024-03-29T04:34:42;36161.31;;;-140.95;51.28
38054;BME280;23859;50.672;7.164;2024-03-29T04:37:08;35914.19;;;-140.95;51.60
38054;BME280;23859;50.672;7.164;2024-03-29T04:39:34;35920.22;;;-140.95;51.19
38054;BME280;23859;50.672;7.164;2024-03-29T04:42:00;35896.09;;;-140.95;51.19
38054;BME280;23859;50.672;7.164;2024-03-29T04:44:27;35936.28;;;-140.95;51.51
38054;BME280;23859;50.672;7.164;2024-03-29T04:46:53;35928.25;;;-140.95;51.94
38054;BME280;23859;50.672;7.164;2024-03-29T04:49:22;35904.13;;;-140.95;52.33
38054;BME280;23859;50.672;7.164;2024-03-29T04:51:50;35894.09;;;-140.95;52.80
38054;BME280;23859;50.672;7.164;2024-03-29T04:54:17;35910.16;;;-140.95;53.07
38054;BME280;23859;50.672;7.164;2024-03-29T04:56:43;35952.34;;;-140.95;53.31
38054;BME280;23859;50.672;7.164;2024-03-29T04:59:09;35898.13;;;-140.95;53.86
38054;BME280;23859;50.672;7.164;2024-03-29T05:01:36;35924.22;;;-140.95;54.82
38054;BME280;23859;50.672;7.164;2024-03-29T05:04:02;35942.31;;;-140.95;55.71
38054;BME280;23859;50.672;7.164;2024-03-29T05:06:30;35920.22;;;-140.95;55.71
38054;BME280;23859;50.672;7.164;2024-03-29T05:08:56;35928.25;;;-140.95;56.38
38054;BME280;23859;50.672;7.164;2024-03-29T05:11:22;35908.16;;;-140.95;56.88
38054;BME280;23859;50.672;7.164;2024-03-29T05:13:48;35944.31;;;-140.95;57.41
38054;BME280;23859;50.672;7.164;2024-03-29T05:16:14;35956.38;;;-140.95;57.31
38054;BME280;23859;50.672;7.164;2024-03-29T05:18:41;35950.34;;;-140.95;58.06
38054;BME280;23859;50.672;7.164;2024-03-29T05:21:07;35920.22;;;-140.95;58.10
38054;BME280;23859;50.672;7.164;2024-03-29T05:23:35;35956.38;;;-140.95;58.60
38054;BME280;23859;50.672;7.164;2024-03-29T05:26:01;35948.34;;;-140.95;59.21
38054;BME280;23859;50.672;7.164;2024-03-29T05:28:28;35912.19;;;-140.95;59.23
38054;BME280;23859;50.672;7.164;2024-03-29T05:30:54;35938.28;;;-140.95;59.77
38054;BME280;23859;50.672;7.164;2024-03-29T05:33:21;35940.31;;;-140.95;60.21
38054;BME280;23859;50.672;7.164;2024-03-29T05:35:47;35928.25;;;-140.95;60.68
38054;BME280;23859;50.672;7.164;2024-03-29T05:38:13;35946.34;;;-140.95;61.15
38054;BME280;23859;50.672;7.164;2024-03-29T05:40:39;35922.22;;;-140.95;61.59
38054;BME280;23859;50.672;7.164;2024-03-29T05:43:05;35976.47;;;-140.95;61.71
38054;BME280;23859;50.672;7.164;2024-03-29T05:45:31;35912.19;;;-140.95;61.91
38054;BME280;23859;50.672;7.164;2024-03-29T05:47:58;35930.25;;;-140.95;62.83
38054;BME280;23859;50.672;7.164;2024-03-29T05:50:25;35936.28;;;-140.95;63.42
38054;BME280;23859;50.672;7.164;2024-03-29T05:52:54;35930.25;;;-140.95;63.74
38054;BME280;23859;50.672;7.164;2024-03-29T05:55:20;35932.28;;;-140.95;64.71
38054;BME280;23859;50.672;7.164;2024-03-29T05:57:46;35948.34;;;-140.95;65.54
38054;BME280;23859;50.672;7.164;2024-03-29T06:00:14;35930.25;;;-140.95;65.76
38054;BME280;23859;50.672;7.164;2024-03-29T06:02:41;35924.22;;;-140.95;65.15
38054;BME280;23859;50.672;7.164;2024-03-29T06:05:08;35934.28;;;-140.95;66.14
38054;BME280;23859;50.672;7.164;2024-03-29T06:07:35;35946.34;;;-140.95;66.44
38054;BME280;23859;50.672;7.164;2024-03-29T06:10:01;35950.34;;;-140.95;66.95
38054;BME280;23859;50.672;7.164;2024-03-29T06:12:34;35930.25;;;-140.95;66.95
38054;BME280;23859;50.672;7.164;2024-03-29T06:15:00;35910.16;;;-140.95;66.57
38054;BME280;23859;50.672;7.164;2024-03-29T06:17:45;35936.28;;;-140.95;67.18
38054;BME280;23859;50.672;7.164;2024-03-29T06:20:12;35916.19;;;-140.95;67.28
38054;BME280;23859;50.672;7.164;2024-03-29T06:22:38;35912.19;;;-140.95;66.90
38054;BME280;23859;50.672;7.164;2024-03-29T06:25:04;35922.22;;;-140.95;67.03
38054;BME280;23859;50.672;7.164;2024-03-29T06:27:35;35920.22;;;-140.95;67.90
38054;BME280;23859;50.672;7.164;2024-03-29T06:30:05;35932.28;;;-140.95;67.97
38054;BME280;23859;50.672;7.164;2024-03-29T06:32:31;35924.22;;;-140.95;67.51
38054;BME280;23859;50.672;7.164;2024-03-29T06:34:58;35892.09;;;-140.95;67.60
38054;BME280;23859;50.672;7.164;2024-03-29T06:37:24;35932.28;;;-140.95;67.90
38054;BME280;23859;50.672;7.164;2024-03-29T06:39:51;35934.28;;;-140.95;68.34
38054;BME280;23859;50.672;7.164;2024-03-29T06:42:17;35789.63;;;-140.95;68.32
38054;BME280;23859;50.672;7.164;2024-03-29T06:44:44;35884.03;;;-140.95;68.81
38054;BME280;23859;50.672;7.164;2024-03-29T06:47:10;35888.06;;;-140.95;68.83
38054;BME280;23859;50.672;7.164;2024-03-29T06:49:36;35888.06;;;-140.95;68.58
38054;BME280;23859;50.672;7.164;2024-03-29T06:52:03;35928.25;;;-140.95;69.00
38054;BME280;23859;50.672;7.164;2024-03-29T06:54:29;35876.00;;;-140.95;68.47
38054;BME280;23859;50.672;7.164;2024-03-29T06:56:56;35876.00;;;-140.95;68.71
38054;BME280;23859;50.672;7.164;2024-03-29T06:59:23;35853.91;;;-140.95;68.39
38054;BME280;23859;50.672;7.164;2024-03-29T07:01:49;35857.94;;;-140.95;68.60
38054;BME280;23859;50.672;7.164;2024-03-29T07:04:23;35859.94;;;-140.95;68.85
38054;BME280;23859;50.672;7.164;2024-03-29T07:06:50;35843.88;;;-140.95;68.53
38054;BME280;23859;50.672;7.164;2024-03-29T07:09:19;35851.91;;;-140.95;68.47
38054;BME280;23859;50.672;7.164;2024-03-29T07:11:47;35872.00;;;-140.95;68.57
38054;BME280;23859;50.672;7.164;2024-03-29T07:14:14;35827.78;;;-140.95;68.55
38054;BME280;23859;50.672;7.164;2024-03-29T07:16:40;35825.78;;;-140.95;68.08
38054;BME280;23859;50.672;7.164;2024-03-29T07:19:06;35825.78;;;-140.95;68.10
38054;BME280;23859;50.672;7.164;2024-03-29T07:21:32;35831.81;;;-140.95;68.16
38054;BME280;23859;50.672;7.164;2024-03-29T07:23:59;35791.63;;;-140.95;67.80
38054;BME280;23859;50.672;7.164;2024-03-29T07:26:25;35773.53;;;-140.95;67.73
38054;BME280;23859;50.672;7.164;2024-03-29T07:28:51;35783.59;;;-140.95;67.52
38054;BME280;23859;50.672;7.164;2024-03-29T07:31:17;35773.53;;;-140.95;66.85
38054;BME280;23859;50.672;7.164;2024-03-29T07:33:43;35803.69;;;-140.95;67.15
38054;BME280;23859;50.672;7.164;2024-03-29T07:36:09;35779.56;;;-140.95;67.54
38054;BME280;23859;50.672;7.164;2024-03-29T07:38:38;35787.59;;;-140.95;67.51
38054;BME280;23859;50.672;7.164;2024-03-29T07:41:05;35731.34;;;-140.95;66.87
38054;BME280;23859;50.672;7.164;2024-03-29T07:43:52;35781.56;;;-140.95;67.00
38054;BME280;23859;50.672;7.164;2024-03-29T07:46:22;35775.56;;;-140.95;67.56
38054;BME280;23859;50.672;7.164;2024-03-29T07:48:49;35753.44;;;-140.95;67.27
38054;BME280;23859;50.672;7.164;2024-03-29T07:51:16;35757.47;;;-140.95;66.87
38054;BME280;23859;50.672;7.164;2024-03-29T07:53:42;35743.41;;;-140.95;67.04
38054;BME280;23859;50.672;7.164;2024-03-29T07:56:08;35711.25;;;-140.95;66.53
38054;BME280;23859;50.672;7.164;2024-03-29T07:58:34;35711.25;;;-140.95;66.08
38054;BME280;23859;50.672;7.164;2024-03-29T08:01:00;35699.19;;;-140.95;66.42
38054;BME280;23859;50.672;7.164;2024-03-29T08:03:26;35691.16;;;-140.95;66.55
38054;BME280;23859;50.672;7.164;2024-03-29T08:05:58;35695.19;;;-140.95;66.16
38054;BME280;23859;50.672;7.164;2024-03-29T08:08:24;35719.28;;;-140.95;66.18
38054;BME280;23859;50.672;7.164;2024-03-29T08:10:53;35707.25;;;-140.95;65.95
38054;BME280;23859;50.672;7.164;2024-03-29T08:13:20;35713.25;;;-140.95;66.16
38054;BME280;23859;50.672;7.164;2024-03-29T08:15:47;34258.94;;;-140.95;66.03
38054;BME280;23859;50.672;7.164;2024-03-29T08:18:14;35697.19;;;-140.95;65.73
38054;BME280;23859;50.672;7.164;2024-03-29T08:20:40;35703.22;;;-140.95;66.23
38054;BME280;23859;50.672;7.164;2024-03-29T08:23:06;35697.19;;;-140.95;66.30
38054;BME280;23859;50.672;7.164;2024-03-29T08:25:32;35687.16;;;-140.95;66.04
38054;BME280;23859;50.672;7.164;2024-03-29T08:27:58;35671.06;;;-140.95;65.84
38054;BME280;23859;50.672;7.164;2024-03-29T08:30:27;35691.16;;;-140.95;65.65
38054;BME280;23859;50.672;7.164;2024-03-29T08:32:57;35661.03;;;-140.95;65.50
38054;BME280;23859;50.672;7.164;2024-03-29T08:35:25;35699.19;;;-140.95;65.09
38054;BME280;23859;50.672;7.164;2024-03-29T08:37:51;35683.13;;;-140.95;65.38
38054;BME280;23859;50.672;7.164;2024-03-29T08:40:17;35661.03;;;-140.95;65.48
38054;BME280;23859;50.672;7.164;2024-03-29T08:42:43;35663.03;;;-140.95;66.72
38054;BME280;23859;50.672;7.164;2024-03-29T08:45:10;35646.97;;;-140.95;66.17
38054;BME280;23859;50.672;7.164;2024-03-29T08:47:36;35655.00;;;-140.95;65.62
38054;BME280;23859;50.672;7.164;2024-03-29T08:50:02;35578.66;;;-140.95;65.53
38054;BME280;23859;50.672;7.164;2024-03-29T08:52:30;35624.88;;;-140.95;65.40
38054;BME280;23859;50.672;7.164;2024-03-29T08:54:56;35570.63;;;-140.95;64.96
38054;BME280;23859;50.672;7.164;2024-03-29T08:57:22;35610.81;;;-140.95;64.65
38054;BME280;23859;50.672;7.164;2024-03-29T08:59:51;35578.66;;;-140.95;64.94
38054;BME280;23859;50.672;7.164;2024-03-29T09:02:17;35892.09;;;-140.95;64.80
38054;BME280;23859;50.672;7.164;2024-03-29T09:04:44;35594.72;;;-140.95;65.30
38054;BME280;23859;50.672;7.164;2024-03-29T09:07:10;35602.75;;;-140.95;65.30
38054;BME280;23859;50.672;7.164;2024-03-29T09:09:36;35638.94;;;-140.95;65.84
38054;BME280;23859;50.672;7.164;2024-03-29T09:12:06;35653.00;;;-140.95;66.32
38054;BME280;23859;50.672;7.164;2024-03-29T09:14:32;35594.72;;;-140.95;65.94
38054;BME280;23859;50.672;7.164;2024-03-29T09:16:58;35890.06;;;-140.95;66.49
38054;BME280;23859;50.672;7.164;2024-03-29T09:19:24;35622.84;;;-140.95;66.97
38054;BME280;23859;50.672;7.164;2024-03-29T09:21:50;35659.03;;;-140.95;66.61
38054;BME280;23859;50.672;7.164;2024-03-29T09:24:16;35634.91;;;-140.95;66.33
38054;BME280;23859;50.672;7.164;2024-03-29T09:26:43;35622.84;;;-140.95;67.00
38054;BME280;23859;50.672;7.164;2024-03-29T09:29:09;35671.06;;;-140.95;66.38
38054;BME280;23859;50.672;7.164;2024-03-29T09:31:36;35630.91;;;-140.95;66.25
38054;BME280;23859;50.672;7.164;2024-03-29T09:34:02;35650.97;;;-140.95;66.89
38054;BME280;23859;50.672;7.164;2024-03-29T09:36:28;35638.94;;;-140.95;67.06
38054;BME280;23859;50.672;7.164;2024-03-29T09:38:54;35608.78;;;-140.95;67.15
38054;BME280;23859;50.672;7.164;2024-03-29T09:41:20;35648.97;;;-140.95;67.33
38054;BME280;23859;50.672;7.164;2024-03-29T09:43:48;35671.06;;;-140.95;68.27
38054;BME280;23859;50.672;7.164;2024-03-29T09:46:15;35634.91;;;-140.95;67.93
38054;BME280;23859;50.672;7.164;2024-03-29T09:48:42;35653.00;;;-140.95;67.90
38054;BME280;23859;50.672;7.164;2024-03-29T09:51:12;35646.97;;;-140.95;68.00
38054;BME280;23859;50.672;7.164;2024-03-29T09:53:44;35646.97;;;-140.95;67.93
38054;BME280;23859;50.672;7.164;2024-03-29T09:56:11;35626.88;;;-140.95;67.88
38054;BME280;23859;50.672;7.164;2024-03-29T09:58:38;35634.91;;;-140.95;67.81
38054;BME280;23859;50.672;7.164;2024-03-29T10:01:05;35602.75;;;-140.95;66.82
38054;BME280;23859;50.672;7.164;2024-03-29T10:03:39;35570.63;;;-140.95;66.74
38054;BME280;23859;50.672;7.164;2024-03-29T10:06:05;35604.78;;;-140.95;66.21
38054;BME280;23859;50.672;7.164;2024-03-29T10:08:35;35598.75;;;-140.95;66.42
38054;BME280;23859;50.672;7.164;2024-03-29T10:11:01;35604.78;;;-140.95;66.11
38054;BME280;23859;50.672;7.164;2024-03-29T10:13:28;35602.75;;;-140.95;65.67
38054;BME280;23859;50.672;7.164;2024-03-29T10:15:55;35586.69;;;-140.95;65.43
38054;BME280;23859;50.672;7.164;2024-03-29T10:18:25;35584.69;;;-140.95;66.23
38054;BME280;23859;50.672;7.164;2024-03-29T10:21:05;35610.81;;;-140.95;66.00
38054;BME280;23859;50.672;7.164;2024-03-29T10:23:33;35614.81;;;-140.95;66.12
38054;BME280;23859;50.672;7.164;2024-03-29T10:26:01;35590.72;;;-140.95;65.82
38054;BME280;23859;50.672;7.164;2024-03-29T10:28:34;35626.88;;;-140.95;66.03
38054;BME280;23859;50.672;7.164;2024-03-29T10:31:02;35622.84;;;-140.95;66.11
38054;BME280;23859;50.672;7.164;2024-03-29T10:33:32;35606.78;;;-140.95;65.28
38054;BME280;23859;50.672;7.164;2024-03-29T10:36:02;35584.69;;;-140.95;65.20
38054;BME280;23859;50.672;7.164;2024-03-29T10:38:32;35550.53;;;-140.95;64.61
38054;BME280;23859;50.672;7.164;2024-03-29T10:40:58;35554.56;;;-140.95;64.09
38054;BME280;23859;50.672;7.164;2024-03-29T10:43:25;35560.56;;;-140.95;63.94
38054;BME280;23859;50.672;7.164;2024-03-29T10:45:51;35514.38;;;-140.95;63.57
38054;BME280;23859;50.672;7.164;2024-03-29T10:48:21;35510.34;;;-140.95;62.64
38054;BME280;23859;50.672;7.164;2024-03-29T10:50:50;35558.56;;;-140.95;63.14
38054;BME280;23859;50.672;7.164;2024-03-29T10:53:19;35490.25;;;-140.95;62.64
38054;BME280;23859;50.672;7.164;2024-03-29T10:55:45;35540.47;;;-140.95;62.64
38054;BME280;23859;50.672;7.164;2024-03-29T10:58:12;35494.28;;;-140.95;62.55
38054;BME280;23859;50.672;7.164;2024-03-29T11:00:46;35482.22;;;-140.95;62.26
38054;BME280;23859;50.672;7.164;2024-03-29T11:06:04;35466.16;;;-140.95;62.72
38054;BME280;23859;50.672;7.164;2024-03-29T11:08:34;35470.16;;;-140.95;62.35
38054;BME280;23859;50.672;7.164;2024-03-29T11:11:05;35486.25;;;-140.95;61.84
38054;BME280;23859;50.672;7.164;2024-03-29T11:13:33;35474.19;;;-140.95;62.23
38054;BME280;23859;50.672;7.164;2024-03-29T11:16:00;35542.50;;;-140.95;62.25
38054;BME280;23859;50.672;7.164;2024-03-29T11:18:28;35490.25;;;-140.95;62.24
38054;BME280;23859;50.672;7.164;2024-03-29T11:20:55;35512.34;;;-140.95;62.37
38054;BME280;23859;50.672;7.164;2024-03-29T11:23:24;35480.22;;;-140.95;62.15
38054;BME280;23859;50.672;7.164;2024-03-29T11:25:52;35500.31;;;-140.95;62.98
38054;BME280;23859;50.672;7.164;2024-03-29T11:28:31;35502.31;;;-140.95;62.85
38054;BME280;23859;50.672;7.164;2024-03-29T11:31:07;35494.28;;;-140.95;62.18
38054;BME280;23859;50.672;7.164;2024-03-29T11:33:45;35468.16;;;-140.95;61.75
38054;BME280;23859;50.672;7.164;2024-03-29T11:36:27;35512.34;;;-140.95;61.44
38054;BME280;23859;50.672;7.164;2024-03-29T11:38:56;35494.28;;;-140.95;61.64
38054;BME280;23859;50.672;7.164;2024-03-29T11:41:26;35504.31;;;-140.95;61.51
38054;BME280;23859;50.672;7.164;2024-03-29T11:43:54;35466.16;;;-140.95;61.27
38054;BME280;23859;50.672;7.164;2024-03-29T11:46:21;35472.19;;;-140.95;61.75
38054;BME280;23859;50.672;7.164;2024-03-29T11:48:48;35466.16;;;-140.95;61.33
38054;BME280;23859;50.672;7.164;2024-03-29T11:51:22;35480.22;;;-140.95;61.54
38054;BME280;23859;50.672;7.164;2024-03-29T11:53:50;35474.19;;;-140.95;61.34
38054;BME280;23859;50.672;7.164;2024-03-29T11:56:20;35490.25;;;-140.95;61.49
38054;BME280;23859;50.672;7.164;2024-03-29T11:58:48;35484.22;;;-140.95;62.14
38054;BME280;23859;50.672;7.164;2024-03-29T12:01:14;35502.31;;;-140.95;62.57
38054;BME280;23859;50.672;7.164;2024-03-29T12:03:42;35440.03;;;-140.95;62.00
38054;BME280;23859;50.672;7.164;2024-03-29T12:06:09;35454.09;;;-140.95;62.27
38054;BME280;23859;50.672;7.164;2024-03-29T12:08:41;35423.97;;;-140.95;61.84
38054;BME280;23859;50.672;7.164;2024-03-29T12:11:09;35440.03;;;-140.95;61.23
38054;BME280;23859;50.672;7.164;2024-03-29T12:13:35;35413.91;;;-140.95;60.90
38054;BME280;23859;50.672;7.164;2024-03-29T12:16:02;35405.88;;;-140.95;60.41
38054;BME280;23859;50.672;7.164;2024-03-29T12:18:29;35403.88;;;-140.95;59.79
38054;BME280;23859;50.672;7.164;2024-03-29T12:20:59;35423.97;;;-140.95;59.23
38054;BME280;23859;50.672;7.164;2024-03-29T12:23:25;35405.88;;;-140.95;58.89
38054;BME280;23859;50.672;7.164;2024-03-29T12:25:58;35454.09;;;-140.95;59.73
38054;BME280;23859;50.672;7.164;2024-03-29T12:28:25;35438.03;;;-140.95;59.15
38054;BME280;23859;50.672;7.164;2024-03-29T12:30:51;35427.97;;;-140.95;59.06
38054;BME280;23859;50.672;7.164;2024-03-29T12:33:20;35417.94;;;-140.95;58.53
38054;BME280;23859;50.672;7.164;2024-03-29T12:35:48;35377.75;;;-140.95;57.32
38054;BME280;23859;50.672;7.164;2024-03-29T12:38:16;35383.78;;;-140.95;58.00
38054;BME280;23859;50.672;7.164;2024-03-29T12:40:43;35803.69;;;-140.95;57.98
38054;BME280;23859;50.672;7.164;2024-03-29T12:43:10;35421.94;;;-140.95;56.95
38054;BME280;23859;50.672;7.164;2024-03-29T12:45:40;35405.88;;;-140.95;57.24
38054;BME280;23859;50.672;7.164;2024-03-29T12:48:24;35436.00;;;-140.95;59.09
38054;BME280;23859;50.672;7.164;2024-03-29T12:50:52;35490.25;;;-140.95;62.04